sensor_id;sensor_type;location;lat;lon;timestamp;pressure;altitude;pressure_sealevel;temperature;humidity
17060;BME280;8646;49.716;9.266;2023-02-28T00:00:48;101358.47;;;-0.09;69.39
17060;BME280;8646;49.716;9.266;2023-02-28T00:03:52;101364.69;;;-0.08;69.58
17060;BME280;8646;49.716;9.266;2023-02-28T00:06:55;101368.31;;;-0.03;69.69
17060;BME280;8646;49.716;9.266;2023-02-28T00:10:10;101363.78;;;-0.10;69.86
17060;BME280;8646;49.716;9.266;2023-02-28T00:13:13;101360.19;;;-0.12;69.94
17060;BME280;8646;49.716;9.266;2023-02-28T00:16:21;101369.00;;;-0.15;70.24
17060;BME280;8646;49.716;9.266;2023-02-28T00:19:30;101360.97;;;-0.18;70.63
17060;BME280;8646;49.716;9.266;2023-02-28T00:22:34;101359.09;;;-0.25;70.67
17060;BME280;8646;49.716;9.266;2023-02-28T00:25:37;101363.22;;;-0.42;71.54
17060;BME280;8646;49.716;9.266;2023-02-28T00:28:40;101359.66;;;-0.43;71.51
17060;BME280;8646;49.716;9.266;2023-02-28T00:31:44;101367.56;;;-0.46;71.71
17060;BME280;8646;49.716;9.266;2023-02-28T00:34:46;101364.22;;;-0.35;71.87
17060;BME280;8646;49.716;9.266;2023-02-28T00:37:51;101376.34;;;-0.51;71.97
17060;BME280;8646;49.716;9.266;2023-02-28T00:40:54;101367.81;;;-0.33;71.92
17060;BME280;8646;49.716;9.266;2023-02-28T00:44:00;101371.16;;;-0.44;72.14
17060;BME280;8646;49.716;9.266;2023-02-28T00:47:05;101367.63;;;-0.43;72.52
17060;BME280;8646;49.716;9.266;2023-02-28T00:50:09;101364.22;;;-0.35;72.35
17060;BME280;8646;49.716;9.266;2023-02-28T00:53:13;101365.88;;;-0.42;72.54
17060;BME280;8646;49.716;9.266;2023-02-28T00:56:16;101366.66;;;-0.46;72.79
17060;BME280;8646;49.716;9.266;2023-02-28T00:59:33;101371.91;;;-0.51;72.70
17060;BME280;8646;49.716;9.266;2023-02-28T01:02:37;101362.94;;;-0.57;73.20
17060;BME280;8646;49.716;9.266;2023-02-28T01:05:40;101370.63;;;-0.71;73.58
17060;BME280;8646;49.716;9.266;2023-02-28T01:08:43;101364.41;;;-0.73;73.79
17060;BME280;8646;49.716;9.266;2023-02-28T01:11:46;101369.75;;;-0.70;73.94
17060;BME280;8646;49.716;9.266;2023-02-28T01:14:56;101371.56;;;-0.69;73.83
17060;BME280;8646;49.716;9.266;2023-02-28T01:18:00;101354.50;;;-0.80;74.27
17060;BME280;8646;49.716;9.266;2023-02-28T01:21:04;101349.63;;;-1.02;74.49
17060;BME280;8646;49.716;9.266;2023-02-28T01:24:10;101371.34;;;-0.81;74.49
17060;BME280;8646;49.716;9.266;2023-02-28T01:27:13;101368.69;;;-0.81;74.61
17060;BME280;8646;49.716;9.266;2023-02-28T01:30:23;101362.47;;;-0.82;74.74
17060;BME280;8646;49.716;9.266;2023-02-28T01:33:29;101345.41;;;-0.93;74.70
17060;BME280;8646;49.716;9.266;2023-02-28T01:36:58;101355.19;;;-0.90;74.95
17060;BME280;8646;49.716;9.266;2023-02-28T01:40:07;101357.03;;;-0.86;74.85
17060;BME280;8646;49.716;9.266;2023-02-28T01:43:20;101359.56;;;-0.92;75.01
17060;BME280;8646;49.716;9.266;2023-02-28T01:46:24;101356.06;;;-0.91;75.12
17060;BME280;8646;49.716;9.266;2023-02-28T01:49:31;101353.13;;;-1.03;75.43
17060;BME280;8646;49.716;9.266;2023-02-28T01:52:34;101353.84;;;-1.12;75.42
17060;BME280;8646;49.716;9.266;2023-02-28T01:55:38;101357.28;;;-1.18;75.78
17060;BME280;8646;49.716;9.266;2023-02-28T01:58:41;101360.59;;;-1.28;75.41
17060;BME280;8646;49.716;9.266;2023-02-28T02:01:51;101356.88;;;-1.36;75.36
17060;BME280;8646;49.716;9.266;2023-02-28T02:04:58;101347.03;;;-1.41;75.06
17060;BME280;8646;49.716;9.266;2023-02-28T02:08:08;101357.53;;;-1.47;74.98
17060;BME280;8646;49.716;9.266;2023-02-28T02:11:13;101341.59;;;-1.47;75.01
17060;BME280;8646;49.716;9.266;2023-02-28T02:14:33;101343.22;;;-1.54;75.22
17060;BME280;8646;49.716;9.266;2023-02-28T02:17:42;101343.22;;;-1.54;75.03
17060;BME280;8646;49.716;9.266;2023-02-28T02:21:24;101335.09;;;-1.60;75.14
17060;BME280;8646;49.716;9.266;2023-02-28T02:24:59;101342.06;;;-1.65;75.10
17060;BME280;8646;49.716;9.266;2023-02-28T02:28:22;101338.47;;;-1.67;75.11
17060;BME280;8646;49.716;9.266;2023-02-28T02:31:50;101334.97;;;-1.66;75.16
17060;BME280;8646;49.716;9.266;2023-02-28T02:35:01;101328.81;;;-1.65;75.38
17060;BME280;8646;49.716;9.266;2023-02-28T02:38:18;101332.41;;;-1.63;75.36
17060;BME280;8646;49.716;9.266;2023-02-28T02:41:26;101336.88;;;-1.59;75.42
17060;BME280;8646;49.716;9.266;2023-02-28T02:44:37;101341.31;;;-1.60;75.30
17060;BME280;8646;49.716;9.266;2023-02-28T02:47:43;101343.91;;;-1.61;75.18
17060;BME280;8646;49.716;9.266;2023-02-28T02:50:50;101336.69;;;-1.68;75.18
17060;BME280;8646;49.716;9.266;2023-02-28T02:53:56;101336.69;;;-1.68;75.30
17060;BME280;8646;49.716;9.266;2023-02-28T02:57:03;101337.50;;;-1.72;75.24
17060;BME280;8646;49.716;9.266;2023-02-28T03:00:09;101341.91;;;-1.73;75.20
17060;BME280;8646;49.716;9.266;2023-02-28T03:03:16;101344.47;;;-1.76;75.43
17060;BME280;8646;49.716;9.266;2023-02-28T03:06:23;101344.44;;;-1.77;75.48
17060;BME280;8646;49.716;9.266;2023-02-28T03:09:26;101348.88;;;-1.76;75.47
17060;BME280;8646;49.716;9.266;2023-02-28T03:16:02;101338.13;;;-1.82;75.61
17060;BME280;8646;49.716;9.266;2023-02-28T03:19:30;101330.97;;;-1.85;75.58
17060;BME280;8646;49.716;9.266;2023-02-28T03:22:52;101334.41;;;-1.90;75.63
17060;BME280;8646;49.716;9.266;2023-02-28T03:26:05;101335.25;;;-1.92;75.69
17060;BME280;8646;49.716;9.266;2023-02-28T03:29:15;101338.72;;;-1.96;75.77
17060;BME280;8646;49.716;9.266;2023-02-28T03:32:22;101341.28;;;-1.99;76.06
17060;BME280;8646;49.716;9.266;2023-02-28T03:35:31;101342.28;;;-1.94;76.07
17060;BME280;8646;49.716;9.266;2023-02-28T03:38:38;101342.19;;;-1.98;76.56
17060;BME280;8646;49.716;9.266;2023-02-28T03:41:45;101346.59;;;-1.99;76.46
17060;BME280;8646;49.716;9.266;2023-02-28T03:44:53;101337.69;;;-2.01;76.57
17060;BME280;8646;49.716;9.266;2023-02-28T03:48:02;101343.84;;;-2.03;76.50
17060;BME280;8646;49.716;9.266;2023-02-28T03:51:07;101340.28;;;-2.04;76.77
17060;BME280;8646;49.716;9.266;2023-02-28T03:54:16;101341.06;;;-2.08;76.86
17060;BME280;8646;49.716;9.266;2023-02-28T03:57:25;101345.47;;;-2.08;77.07
17060;BME280;8646;49.716;9.266;2023-02-28T04:00:35;101341.06;;;-2.08;76.96
17060;BME280;8646;49.716;9.266;2023-02-28T04:03:39;101344.66;;;-2.06;77.31
17060;BME280;8646;49.716;9.266;2023-02-28T04:06:43;101340.97;;;-2.12;77.29
17060;BME280;8646;49.716;9.266;2023-02-28T04:09:47;101346.16;;;-2.15;77.30
17060;BME280;8646;49.716;9.266;2023-02-28T04:12:50;101353.19;;;-2.19;77.37
17060;BME280;8646;49.716;9.266;2023-02-28T04:15:52;101315.63;;;-2.36;77.28
17060;BME280;8646;49.716;9.266;2023-02-28T04:18:57;101350.47;;;-2.20;77.20
17060;BME280;8646;49.716;9.266;2023-02-28T04:22:03;101351.28;;;-2.23;77.55
17060;BME280;8646;49.716;9.266;2023-02-28T04:25:08;101353.84;;;-2.27;77.63
17060;BME280;8646;49.716;9.266;2023-02-28T04:28:11;101344.19;;;-2.24;77.81
17060;BME280;8646;49.716;9.266;2023-02-28T04:31:13;101347.59;;;-2.29;78.06
17060;BME280;8646;49.716;9.266;2023-02-28T04:34:16;101351.06;;;-2.32;77.90
17060;BME280;8646;49.716;9.266;2023-02-28T04:37:20;101351.00;;;-2.35;77.88
17060;BME280;8646;49.716;9.266;2023-02-28T04:40:38;101352.81;;;-2.33;78.18
17060;BME280;8646;49.716;9.266;2023-02-28T04:43:41;101356.22;;;-2.38;78.34
17060;BME280;8646;49.716;9.266;2023-02-28T04:46:50;101366.00;;;-2.36;78.42
17060;BME280;8646;49.716;9.266;2023-02-28T04:49:52;101360.59;;;-2.39;78.43
17060;BME280;8646;49.716;9.266;2023-02-28T04:52:57;101356.06;;;-2.44;78.50
17060;BME280;8646;49.716;9.266;2023-02-28T04:56:12;101354.25;;;-2.45;78.47
17060;BME280;8646;49.716;9.266;2023-02-28T04:59:15;101354.25;;;-2.45;78.33
17060;BME280;8646;49.716;9.266;2023-02-28T05:02:23;101350.63;;;-2.49;78.38
17060;BME280;8646;49.716;9.266;2023-02-28T05:05:26;101361.34;;;-2.44;78.31
17060;BME280;8646;49.716;9.266;2023-02-28T05:08:29;101366.56;;;-2.47;78.77
17060;BME280;8646;49.716;9.266;2023-02-28T05:11:33;101362.06;;;-2.50;78.72
17060;BME280;8646;49.716;9.266;2023-02-28T05:14:37;101357.59;;;-2.52;78.67
17060;BME280;8646;49.716;9.266;2023-02-28T05:17:40;101363.72;;;-2.55;78.75
17060;BME280;8646;49.716;9.266;2023-02-28T05:20:43;101368.13;;;-2.55;78.65
17060;BME280;8646;49.716;9.266;2023-02-28T05:23:58;101373.38;;;-2.57;78.69
17060;BME280;8646;49.716;9.266;2023-02-28T05:27:03;101373.31;;;-2.58;78.97
17060;BME280;8646;49.716;9.266;2023-02-28T05:30:09;101368.97;;;-2.56;78.91
17060;BME280;8646;49.716;9.266;2023-02-28T05:33:13;101368.91;;;-2.59;79.08
17060;BME280;8646;49.716;9.266;2023-02-28T05:36:16;101373.16;;;-2.64;79.21
17060;BME280;8646;49.716;9.266;2023-02-28T05:39:18;101381.00;;;-2.69;79.05
17060;BME280;8646;49.716;9.266;2023-02-28T05:42:25;101375.59;;;-2.72;79.16
17060;BME280;8646;49.716;9.266;2023-02-28T05:45:32;101389.75;;;-2.72;78.87
17060;BME280;8646;49.716;9.266;2023-02-28T05:48:36;101377.34;;;-2.73;79.15
17060;BME280;8646;49.716;9.266;2023-02-28T05:51:39;101385.41;;;-2.70;79.38
17060;BME280;8646;49.716;9.266;2023-02-28T05:54:43;101382.66;;;-2.73;79.32
17060;BME280;8646;49.716;9.266;2023-02-28T05:57:47;101393.16;;;-2.77;79.59
17060;BME280;8646;49.716;9.266;2023-02-28T06:00:49;101393.16;;;-2.77;79.53
17060;BME280;8646;49.716;9.266;2023-02-28T06:03:52;101387.00;;;-2.76;79.60
17060;BME280;8646;49.716;9.266;2023-02-28T06:06:55;101388.66;;;-2.80;79.60
17060;BME280;8646;49.716;9.266;2023-02-28T06:09:59;101392.16;;;-2.81;79.56
17060;BME280;8646;49.716;9.266;2023-02-28T06:13:04;101392.09;;;-2.82;79.54
17060;BME280;8646;49.716;9.266;2023-02-28T06:16:08;101391.28;;;-2.80;79.58
17060;BME280;8646;49.716;9.266;2023-02-28T06:19:12;101391.19;;;-2.83;79.58
17060;BME280;8646;49.716;9.266;2023-02-28T06:22:16;101387.00;;;-2.76;79.62
17060;BME280;8646;49.716;9.266;2023-02-28T06:25:19;101389.44;;;-2.82;79.65
17060;BME280;8646;49.716;9.266;2023-02-28T06:28:26;101388.59;;;-2.81;79.44
17060;BME280;8646;49.716;9.266;2023-02-28T06:31:29;101400.19;;;-2.78;79.57
17060;BME280;8646;49.716;9.266;2023-02-28T06:34:37;101391.34;;;-2.78;79.40
17060;BME280;8646;49.716;9.266;2023-02-28T06:37:40;101392.31;;;-2.75;79.57
17060;BME280;8646;49.716;9.266;2023-02-28T06:40:43;101391.47;;;-2.74;79.41
17060;BME280;8646;49.716;9.266;2023-02-28T06:43:48;101399.59;;;-2.67;79.33
17060;BME280;8646;49.716;9.266;2023-02-28T06:46:51;101398.72;;;-2.66;79.56
17060;BME280;8646;49.716;9.266;2023-02-28T06:49:53;101407.63;;;-2.64;79.50
17060;BME280;8646;49.716;9.266;2023-02-28T06:53:07;101412.16;;;-2.60;79.35
17060;BME280;8646;49.716;9.266;2023-02-28T06:56:11;101410.63;;;-2.52;79.27
17060;BME280;8646;49.716;9.266;2023-02-28T06:59:15;101414.28;;;-2.47;79.32
17060;BME280;8646;49.716;9.266;2023-02-28T07:02:18;101407.34;;;-2.42;79.32
17060;BME280;8646;49.716;9.266;2023-02-28T07:05:21;101408.44;;;-2.36;79.24
17060;BME280;8646;49.716;9.266;2023-02-28T07:08:24;101415.78;;;-2.24;79.18
17060;BME280;8646;49.716;9.266;2023-02-28T07:11:34;101417.78;;;-2.15;79.08
17060;BME280;8646;49.716;9.266;2023-02-28T07:14:38;101419.81;;;-2.05;79.02
17060;BME280;8646;49.716;9.266;2023-02-28T07:17:41;101411.25;;;-1.94;78.66
17060;BME280;8646;49.716;9.266;2023-02-28T07:20:43;101414.13;;;-1.84;78.71
17060;BME280;8646;49.716;9.266;2023-02-28T07:23:49;101415.41;;;-1.70;78.55
17060;BME280;8646;49.716;9.266;2023-02-28T07:26:52;101407.78;;;-1.55;78.22
17060;BME280;8646;49.716;9.266;2023-02-28T07:30:03;101412.84;;;-1.27;76.28
17060;BME280;8646;49.716;9.266;2023-02-28T07:33:06;101407.75;;;-1.18;75.89
17060;BME280;8646;49.716;9.266;2023-02-28T07:36:11;101410.69;;;-1.05;75.87
17060;BME280;8646;49.716;9.266;2023-02-28T07:39:16;101416.16;;;-0.96;75.74
17060;BME280;8646;49.716;9.266;2023-02-28T07:42:21;101409.41;;;-0.82;75.09
17060;BME280;8646;49.716;9.266;2023-02-28T07:45:25;101404.31;;;-0.70;74.44
17060;BME280;8646;49.716;9.266;2023-02-28T07:48:28;101413.44;;;-0.56;73.45
17060;BME280;8646;49.716;9.266;2023-02-28T07:51:31;101395.91;;;-0.46;72.55
17060;BME280;8646;49.716;9.266;2023-02-28T07:54:34;101406.69;;;-0.39;72.35
17060;BME280;8646;49.716;9.266;2023-02-28T07:57:37;101399.72;;;-0.33;72.08
17060;BME280;8646;49.716;9.266;2023-02-28T08:00:41;101406.94;;;-0.26;72.25
17060;BME280;8646;49.716;9.266;2023-02-28T08:03:44;101400.91;;;-0.15;71.26
17060;BME280;8646;49.716;9.266;2023-02-28T08:06:46;101400.25;;;-0.03;70.29
17060;BME280;8646;49.716;9.266;2023-02-28T08:09:49;101404.88;;;0.07;69.81
17060;BME280;8646;49.716;9.266;2023-02-28T08:12:55;101409.16;;;-0.01;70.68
17060;BME280;8646;49.716;9.266;2023-02-28T08:16:01;101397.28;;;0.31;68.25
17060;BME280;8646;49.716;9.266;2023-02-28T08:19:04;101406.16;;;0.33;68.18
17060;BME280;8646;49.716;9.266;2023-02-28T08:22:10;101388.81;;;0.57;66.74
17060;BME280;8646;49.716;9.266;2023-02-28T08:25:19;101393.47;;;0.73;64.99
17060;BME280;8646;49.716;9.266;2023-02-28T08:28:23;101386.25;;;0.64;65.72
17060;BME280;8646;49.716;9.266;2023-02-28T08:31:29;101378.44;;;0.78;65.24
17060;BME280;8646;49.716;9.266;2023-02-28T08:34:32;101386.50;;;0.84;65.29
17060;BME280;8646;49.716;9.266;2023-02-28T08:37:35;101382.38;;;1.07;63.56
17060;BME280;8646;49.716;9.266;2023-02-28T08:40:38;101375.34;;;1.12;63.26
17060;BME280;8646;49.716;9.266;2023-02-28T08:43:52;101384.13;;;1.05;63.61
17060;BME280;8646;49.716;9.266;2023-02-28T08:46:57;101370.97;;;1.19;63.70
17060;BME280;8646;49.716;9.266;2023-02-28T08:49:59;101375.53;;;1.31;62.40
17060;BME280;8646;49.716;9.266;2023-02-28T08:53:02;101367.78;;;1.52;60.77
17060;BME280;8646;49.716;9.266;2023-02-28T08:56:21;101368.78;;;1.63;60.95
17060;BME280;8646;49.716;9.266;2023-02-28T08:59:24;101364.41;;;1.70;59.86
17060;BME280;8646;49.716;9.266;2023-02-28T09:02:28;101364.41;;;1.73;59.93
17060;BME280;8646;49.716;9.266;2023-02-28T09:05:31;101360.91;;;1.77;59.32
17060;BME280;8646;49.716;9.266;2023-02-28T09:08:34;101361.06;;;1.97;58.60
17060;BME280;8646;49.716;9.266;2023-02-28T09:11:46;101357.56;;;2.01;59.01
17060;BME280;8646;49.716;9.266;2023-02-28T09:14:50;101358.44;;;2.00;59.82
17060;BME280;8646;49.716;9.266;2023-02-28T09:17:54;101352.31;;;2.10;58.65
17060;BME280;8646;49.716;9.266;2023-02-28T09:20:57;101348.00;;;2.27;58.07
17060;BME280;8646;49.716;9.266;2023-02-28T09:24:00;101348.97;;;2.40;55.21
17060;BME280;8646;49.716;9.266;2023-02-28T09:27:05;101351.56;;;2.32;56.44
17060;BME280;8646;49.716;9.266;2023-02-28T09:30:12;101344.53;;;2.43;56.43
17060;BME280;8646;49.716;9.266;2023-02-28T09:33:20;101343.78;;;2.67;53.86
17060;BME280;8646;49.716;9.266;2023-02-28T09:36:24;101339.34;;;2.71;54.87
17060;BME280;8646;49.716;9.266;2023-02-28T09:39:44;101341.16;;;2.78;54.34
17060;BME280;8646;49.716;9.266;2023-02-28T09:42:48;101347.38;;;2.72;55.17
17060;BME280;8646;49.716;9.266;2023-02-28T09:45:52;101351.84;;;2.75;55.51
17060;BME280;8646;49.716;9.266;2023-02-28T09:49:03;101341.31;;;3.17;52.05
17060;BME280;8646;49.716;9.266;2023-02-28T09:52:10;101349.31;;;3.05;53.66
17060;BME280;8646;49.716;9.266;2023-02-28T09:55:19;101349.38;;;3.16;54.08
17060;BME280;8646;49.716;9.266;2023-02-28T09:58:32;101337.88;;;3.53;51.33
17060;BME280;8646;49.716;9.266;2023-02-28T10:01:39;101342.34;;;3.63;51.55
17060;BME280;8646;49.716;9.266;2023-02-28T10:04:54;101339.72;;;3.89;51.90
17060;BME280;8646;49.716;9.266;2023-02-28T10:08:11;101334.31;;;4.07;50.57
17060;BME280;8646;49.716;9.266;2023-02-28T10:11:17;101340.59;;;4.18;50.84
17060;BME280;8646;49.716;9.266;2023-02-28T10:14:24;101324.47;;;4.41;48.43
17060;BME280;8646;49.716;9.266;2023-02-28T10:17:37;101341.47;;;4.27;49.29
17060;BME280;8646;49.716;9.266;2023-02-28T10:21:03;101325.38;;;4.42;47.15
17060;BME280;8646;49.716;9.266;2023-02-28T10:24:19;101328.97;;;4.10;48.89
17060;BME280;8646;49.716;9.266;2023-02-28T10:27:24;101339.69;;;4.12;49.42
17060;BME280;8646;49.716;9.266;2023-02-28T10:30:27;101338.78;;;4.31;47.93
17060;BME280;8646;49.716;9.266;2023-02-28T10:33:38;101320.94;;;4.26;46.58
17060;BME280;8646;49.716;9.266;2023-02-28T10:36:42;101329.88;;;4.05;47.17
17060;BME280;8646;49.716;9.266;2023-02-28T10:39:46;101346.81;;;3.63;48.79
17060;BME280;8646;49.716;9.266;2023-02-28T10:42:55;101345.91;;;3.68;49.42
17060;BME280;8646;49.716;9.266;2023-02-28T10:46:02;101337.00;;;3.86;48.67
17060;BME280;8646;49.716;9.266;2023-02-28T10:49:11;101340.59;;;3.79;49.40
17060;BME280;8646;49.716;9.266;2023-02-28T10:52:33;101325.41;;;3.87;49.30
17060;BME280;8646;49.716;9.266;2023-02-28T10:55:37;101329.88;;;3.87;49.87
17060;BME280;8646;49.716;9.266;2023-02-28T10:58:47;101331.69;;;3.89;49.76
17060;BME280;8646;49.716;9.266;2023-02-28T11:01:53;101334.34;;;4.13;48.73
17060;BME280;8646;49.716;9.266;2023-02-28T11:04:57;101322.69;;;4.42;47.58
17060;BME280;8646;49.716;9.266;2023-02-28T11:08:06;101320.84;;;4.65;46.47
17060;BME280;8646;49.716;9.266;2023-02-28T11:11:12;101325.31;;;4.66;47.38
17060;BME280;8646;49.716;9.266;2023-02-28T11:14:19;101314.47;;;5.03;46.14
17060;BME280;8646;49.716;9.266;2023-02-28T11:17:25;101317.13;;;5.04;46.31
17060;BME280;8646;49.716;9.266;2023-02-28T11:20:30;101320.72;;;4.95;46.15
17060;BME280;8646;49.716;9.266;2023-02-28T11:23:37;101315.44;;;4.82;46.69
17060;BME280;8646;49.716;9.266;2023-02-28T11:26:45;101306.31;;;5.21;45.97
17060;BME280;8646;49.716;9.266;2023-02-28T11:29:48;101302.56;;;5.48;45.89
17060;BME280;8646;49.716;9.266;2023-02-28T11:32:51;101289.03;;;5.61;44.90
17060;BME280;8646;49.716;9.266;2023-02-28T11:36:00;101288.91;;;5.83;43.55
17060;BME280;8646;49.716;9.266;2023-02-28T11:39:10;101299.00;;;5.46;44.21
17060;BME280;8646;49.716;9.266;2023-02-28T11:42:27;101299.00;;;5.50;44.22
17060;BME280;8646;49.716;9.266;2023-02-28T11:45:45;101302.47;;;5.66;44.82
17060;BME280;8646;49.716;9.266;2023-02-28T11:49:00;101291.25;;;6.22;43.43
17060;BME280;8646;49.716;9.266;2023-02-28T11:52:19;101299.41;;;6.16;44.20
17060;BME280;8646;49.716;9.266;2023-02-28T11:55:26;101293.00;;;6.28;43.83
17060;BME280;8646;49.716;9.266;2023-02-28T11:58:37;101295.31;;;6.63;42.81
17060;BME280;8646;49.716;9.266;2023-02-28T12:02:05;101307.47;;;6.13;42.93
17060;BME280;8646;49.716;9.266;2023-02-28T12:05:23;101300.31;;;6.12;43.02
17060;BME280;8646;49.716;9.266;2023-02-28T12:08:57;101294.16;;;5.99;42.92
17060;BME280;8646;49.716;9.266;2023-02-28T12:12:18;101307.06;;;5.46;44.24
17060;BME280;8646;49.716;9.266;2023-02-28T12:15:42;101314.16;;;5.54;43.83
17060;BME280;8646;49.716;9.266;2023-02-28T12:19:12;101304.03;;;5.99;44.38
17060;BME280;8646;49.716;9.266;2023-02-28T12:22:36;101301.94;;;6.28;43.46
17060;BME280;8646;49.716;9.266;2023-02-28T12:25:54;101293.69;;;6.46;43.04
17060;BME280;8646;49.716;9.266;2023-02-28T12:29:04;101290.94;;;6.53;43.12
17060;BME280;8646;49.716;9.266;2023-02-28T12:32:13;101291.66;;;6.70;42.92
17060;BME280;8646;49.716;9.266;2023-02-28T12:35:21;101273.31;;;7.02;41.59
17060;BME280;8646;49.716;9.266;2023-02-28T12:38:27;101280.78;;;6.79;42.58
17060;BME280;8646;49.716;9.266;2023-02-28T12:41:59;101278.00;;;6.85;41.91
17060;BME280;8646;49.716;9.266;2023-02-28T12:45:18;101289.22;;;6.47;42.16
17060;BME280;8646;49.716;9.266;2023-02-28T12:48:27;101282.13;;;6.40;41.89
17060;BME280;8646;49.716;9.266;2023-02-28T12:51:32;101288.78;;;5.99;42.55
17060;BME280;8646;49.716;9.266;2023-02-28T12:54:42;101289.84;;;5.75;43.30
17060;BME280;8646;49.716;9.266;2023-02-28T12:57:53;101281.88;;;5.65;43.54
17060;BME280;8646;49.716;9.266;2023-02-28T13:01:29;101289.09;;;5.55;42.94
17060;BME280;8646;49.716;9.266;2023-02-28T13:04:57;101281.09;;;5.49;43.23
17060;BME280;8646;49.716;9.266;2023-02-28T13:08:25;101298.00;;;5.63;43.44
17060;BME280;8646;49.716;9.266;2023-02-28T13:11:39;101299.09;;;5.32;43.68
17060;BME280;8646;49.716;9.266;2023-02-28T13:14:43;101290.25;;;5.16;44.19
17060;BME280;8646;49.716;9.266;2023-02-28T13:17:49;101280.34;;;5.20;43.71
17060;BME280;8646;49.716;9.266;2023-02-28T13:20:55;101286.63;;;5.26;44.71
17060;BME280;8646;49.716;9.266;2023-02-28T13:24:00;101285.63;;;5.41;44.70
17060;BME280;8646;49.716;9.266;2023-02-28T13:27:40;101281.94;;;5.57;44.10
17060;BME280;8646;49.716;9.266;2023-02-28T13:31:05;101276.38;;;5.82;44.58
17060;BME280;8646;49.716;9.266;2023-02-28T13:34:16;101269.19;;;5.84;43.97
17060;BME280;8646;49.716;9.266;2023-02-28T13:37:35;101254.75;;;5.98;44.11
17060;BME280;8646;49.716;9.266;2023-02-28T13:40:39;101254.78;;;5.94;44.31
17060;BME280;8646;49.716;9.266;2023-02-28T13:44:00;101256.56;;;5.96;43.65
17060;BME280;8646;49.716;9.266;2023-02-28T13:47:24;101261.75;;;6.16;44.16
17060;BME280;8646;49.716;9.266;2023-02-28T13:50:34;101257.94;;;6.37;42.33
17060;BME280;8646;49.716;9.266;2023-02-28T13:53:57;101251.13;;;6.01;43.11
17060;BME280;8646;49.716;9.266;2023-02-28T13:57:22;101250.13;;;6.12;43.29
17060;BME280;8646;49.716;9.266;2023-02-28T14:00:55;101241.88;;;6.32;43.15
17060;BME280;8646;49.716;9.266;2023-02-28T14:04:28;101246.63;;;6.06;43.47
17060;BME280;8646;49.716;9.266;2023-02-28T14:07:48;101248.44;;;6.01;43.86
17060;BME280;8646;49.716;9.266;2023-02-28T14:11:03;101243.97;;;6.03;43.94
17060;BME280;8646;49.716;9.266;2023-02-28T14:17:54;101223.00;;;6.37;42.63
17060;BME280;8646;49.716;9.266;2023-02-28T14:21:08;101202.69;;;6.10;43.45
17060;BME280;8646;49.716;9.266;2023-02-28T14:24:39;101227.66;;;6.20;43.18
17060;BME280;8646;49.716;9.266;2023-02-28T14:27:49;101225.88;;;6.17;43.29
17060;BME280;8646;49.716;9.266;2023-02-28T14:31:01;101230.34;;;6.21;43.43
17060;BME280;8646;49.716;9.266;2023-02-28T14:34:27;101225.00;;;6.18;43.12
17060;BME280;8646;49.716;9.266;2023-02-28T14:37:38;101235.00;;;6.01;43.65
17060;BME280;8646;49.716;9.266;2023-02-28T14:40:45;101240.38;;;6.01;44.09
17060;BME280;8646;49.716;9.266;2023-02-28T14:43:53;101237.69;;;6.02;44.45
17060;BME280;8646;49.716;9.266;2023-02-28T14:46:57;101229.47;;;6.19;43.58
17060;BME280;8646;49.716;9.266;2023-02-28T14:50:03;101231.34;;;6.11;43.88
17060;BME280;8646;49.716;9.266;2023-02-28T14:53:15;101224.06;;;6.24;43.18
17060;BME280;8646;49.716;9.266;2023-02-28T14:56:23;101227.81;;;6.07;43.55
17060;BME280;8646;49.716;9.266;2023-02-28T14:59:29;101228.81;;;5.96;43.87
17060;BME280;8646;49.716;9.266;2023-02-28T15:02:34;101219.69;;;6.13;43.67
17060;BME280;8646;49.716;9.266;2023-02-28T15:05:37;101205.16;;;6.30;42.72
17060;BME280;8646;49.716;9.266;2023-02-28T15:08:40;101203.47;;;6.21;42.80
17060;BME280;8646;49.716;9.266;2023-02-28T15:11:47;101205.16;;;6.31;41.75
17060;BME280;8646;49.716;9.266;2023-02-28T15:14:51;101209.72;;;6.23;42.52
17060;BME280;8646;49.716;9.266;2023-02-28T15:17:56;101206.31;;;6.04;43.05
17060;BME280;8646;49.716;9.266;2023-02-28T15:21:03;101207.22;;;6.06;43.08
17060;BME280;8646;49.716;9.266;2023-02-28T15:24:10;101210.53;;;6.30;42.53
17060;BME280;8646;49.716;9.266;2023-02-28T15:27:20;101209.81;;;6.12;43.16
17060;BME280;8646;49.716;9.266;2023-02-28T15:30:26;101210.72;;;6.15;43.63
17060;BME280;8646;49.716;9.266;2023-02-28T15:33:31;101187.41;;;6.13;42.83
17060;BME280;8646;49.716;9.266;2023-02-28T15:36:34;101213.22;;;6.31;43.12
17060;BME280;8646;49.716;9.266;2023-02-28T15:39:42;101208.75;;;6.30;42.51
17060;BME280;8646;49.716;9.266;2023-02-28T15:43:04;101208.84;;;6.20;42.55
17060;BME280;8646;49.716;9.266;2023-02-28T15:46:09;101191.16;;;5.99;43.17
17060;BME280;8646;49.716;9.266;2023-02-28T15:49:18;101207.94;;;6.22;43.32
17060;BME280;8646;49.716;9.266;2023-02-28T15:52:26;101206.78;;;6.44;42.74
17060;BME280;8646;49.716;9.266;2023-02-28T15:55:30;101206.06;;;6.29;43.11
17060;BME280;8646;49.716;9.266;2023-02-28T15:58:35;101206.13;;;6.24;43.47
17060;BME280;8646;49.716;9.266;2023-02-28T16:01:38;101208.66;;;6.36;43.10
17060;BME280;8646;49.716;9.266;2023-02-28T16:04:59;101213.44;;;6.10;43.19
17060;BME280;8646;49.716;9.266;2023-02-28T16:08:13;101214.41;;;6.01;43.61
17060;BME280;8646;49.716;9.266;2023-02-28T16:11:17;101224.25;;;6.04;43.21
17060;BME280;8646;49.716;9.266;2023-02-28T16:14:23;101215.34;;;5.97;43.68
17060;BME280;8646;49.716;9.266;2023-02-28T16:17:31;101220.72;;;5.99;43.72
17060;BME280;8646;49.716;9.266;2023-02-28T16:20:35;101219.00;;;5.92;44.16
17060;BME280;8646;49.716;9.266;2023-02-28T16:23:37;101221.56;;;6.02;43.97
17060;BME280;8646;49.716;9.266;2023-02-28T16:26:41;101225.25;;;5.92;44.21
17060;BME280;8646;49.716;9.266;2023-02-28T16:29:50;101227.19;;;5.72;44.77
17060;BME280;8646;49.716;9.266;2023-02-28T16:32:56;101223.53;;;5.82;44.02
17060;BME280;8646;49.716;9.266;2023-02-28T16:35:59;101238.06;;;5.57;44.82
17060;BME280;8646;49.716;9.266;2023-02-28T16:39:02;101240.00;;;5.38;45.42
17060;BME280;8646;49.716;9.266;2023-02-28T16:42:11;101247.16;;;5.36;45.03
17060;BME280;8646;49.716;9.266;2023-02-28T16:45:20;101243.63;;;5.28;44.89
17060;BME280;8646;49.716;9.266;2023-02-28T16:48:24;101248.16;;;5.26;45.26
17060;BME280;8646;49.716;9.266;2023-02-28T16:51:27;101255.34;;;5.12;45.53